Terminal Aerodrome Forecast
Issued by NWS

Home | Current Version | Previous Version | Text Only | Print | Product List | Glossary On
Versions: 1 2 3 4 5 6 7 8 9 10 11 12 13 14 15 16 17 18 19 20 21 22 23 24 25 26 27 28 29 30 31 32 33 34 35 36 37 38 39 40 41 42 43 44 45 46 47 48 49 50
000
FTUS46 KOTX 232344
TAFSFF
TAF
KSFF 232344Z 2400/2424 23012G22KT P6SM VCSH SCT025 OVC060
      TEMPO 2400/2401 BKN025 OVC060
     FM240200 21009KT P6SM FEW060 SCT100
     FM240700 21006KT P6SM BKN250
     FM241300 21006KT P6SM SCT015 BKN250
     FM241700 23008G16KT P6SM SCT100 OVC200=

USA.gov is the U.S. government's official web portal to all federal, state and local government web resources and services.